X  Chiuso Dati meteorologici dell'aviazione (METAR)     LIPX Verona Villafranca Airport
Temperatura
19°C Temperatura
19°C Punto di rugiada
100% Umidità



Vento
8 KM/h
5 MPH
2 M/S
4 KTS



320°
NO
Condizioni attuali

Chiaro Chiaro
Pressione 1012.92 (hPa) - 29.91 (inHg)
Visibilità 6.2 (miglio) - 10 (km)
Aeroporto
Codice-Aeroporto LIPX

Posizione: Verona Villafranca Airport
Distanza: 14 (km)

Metar:
LIPX 290050Z 32004KT CAVOK 19/19 Q1013

Ore: 29-07-2021 02:50 CEST